createdAt,value
2019-04-10T03:00:59.051Z,73.80
2019-04-10T03:03:30.523Z,73.60
2019-04-10T03:05:59.840Z,74.10
2019-04-10T03:08:50.492Z,73.50
2019-04-10T03:11:04.350Z,73.50
2019-04-10T03:13:31.719Z,72.80
2019-04-10T03:16:01.315Z,72.70
2019-04-10T03:18:30.595Z,72.60
2019-04-10T03:20:59.855Z,72.30
2019-04-10T03:23:29.464Z,71.70
2019-04-10T03:25:59.472Z,71.70
2019-04-10T03:28:29.214Z,71.20
2019-04-10T03:31:02.243Z,71.10
2019-04-10T03:33:33.760Z,71.20
2019-04-10T03:36:03.187Z,71.60
2019-04-10T03:38:33.995Z,71.20
2019-04-10T03:41:04.032Z,71.30
2019-04-10T03:43:33.974Z,71.90
2019-04-10T03:46:03.578Z,71.60
2019-04-10T03:48:33.403Z,71.40
2019-04-10T03:51:03.879Z,69.80
2019-04-10T03:53:34.072Z,70.40
2019-04-10T03:56:03.395Z,70.80
2019-04-10T03:58:33.606Z,69.90
2019-04-10T04:01:04.812Z,69.70
2019-04-10T04:03:35.062Z,70.00
2019-04-10T04:06:04.508Z,70.00
2019-04-10T04:08:33.782Z,69.60
2019-04-10T04:11:04.839Z,69.80
2019-04-10T04:13:35.451Z,69.70
2019-04-10T04:16:05.222Z,69.20
2019-04-10T04:18:35.351Z,69.30
2019-04-10T04:21:05.588Z,69.50
2019-04-10T04:23:36.113Z,69.50
2019-04-10T04:26:05.885Z,69.40
2019-04-10T04:28:36.209Z,69.10
2019-04-10T04:31:05.618Z,69.30
2019-04-10T04:33:36.078Z,69.10
2019-04-10T04:36:06.135Z,68.70
2019-04-10T04:38:36.814Z,69.00
2019-04-10T04:41:07.483Z,68.80
2019-04-10T04:43:37.157Z,69.10
2019-04-10T04:46:06.426Z,69.30
2019-04-10T04:48:36.691Z,69.20
2019-04-10T04:51:06.684Z,69.60
2019-04-10T04:53:36.405Z,69.20
2019-04-10T04:56:05.946Z,69.40
2019-04-10T04:58:36.063Z,69.30
2019-04-10T05:01:06.294Z,69.50
2019-04-10T05:03:35.999Z,68.80
2019-04-10T05:06:08.052Z,69.00
2019-04-10T05:08:37.857Z,68.70
2019-04-10T05:11:07.231Z,69.30
2019-04-10T05:13:38.290Z,68.80
2019-04-10T05:16:08.178Z,69.10
2019-04-10T05:18:37.852Z,69.10
2019-04-10T05:21:07.122Z,69.10
2019-04-10T05:23:36.382Z,69.20
2019-04-10T05:26:06.097Z,69.00
2019-04-10T05:28:36.237Z,69.40
2019-04-10T05:31:06.646Z,69.70
2019-04-10T05:33:36.741Z,69.10
2019-04-10T05:36:06.955Z,69.30
2019-04-10T05:38:36.365Z,69.10
2019-04-10T05:41:05.626Z,69.10
2019-04-10T05:43:34.906Z,69.10
2019-04-10T05:46:04.893Z,69.10
2019-04-10T05:48:34.318Z,69.50
2019-04-10T05:51:05.696Z,69.50
2019-04-10T05:53:34.879Z,68.70
2019-04-10T05:56:04.133Z,69.30
2019-04-10T05:58:33.462Z,69.70
2019-04-10T06:01:05.336Z,69.40
2019-04-10T06:03:34.722Z,69.70
2019-04-10T06:06:04.195Z,69.90
2019-04-10T06:08:33.441Z,69.70
2019-04-10T06:11:03.093Z,69.50
2019-04-10T06:13:32.619Z,69.80
2019-04-10T06:16:02.024Z,69.50
2019-04-10T06:18:31.406Z,69.50
2019-04-10T06:21:01.043Z,69.00
2019-04-10T06:23:30.320Z,69.30
2019-04-10T06:26:00.527Z,69.10
2019-04-10T06:28:30.978Z,69.40
2019-04-10T06:31:00.728Z,69.80
2019-04-10T06:33:30.321Z,69.00
2019-04-10T06:36:00.817Z,69.20
2019-04-10T06:38:30.781Z,70.30
2019-04-10T06:41:00.191Z,68.60
2019-04-10T06:43:30.744Z,69.00
2019-04-10T06:46:00.406Z,69.10
2019-04-10T06:48:29.674Z,68.80
2019-04-10T06:50:59.821Z,68.20
2019-04-10T06:53:29.438Z,68.30
2019-04-10T06:55:58.708Z,68.10
2019-04-10T06:58:28.263Z,69.60
2019-04-10T07:00:58.067Z,69.30
2019-04-10T07:03:44.897Z,68.90
2019-04-10T07:06:09.015Z,68.10
2019-04-10T07:08:31.972Z,68.30
2019-04-10T07:11:05.977Z,68.40
2019-04-10T07:13:36.821Z,67.70
2019-04-10T07:16:04.242Z,68.20
2019-04-10T07:18:35.871Z,67.60
2019-04-10T07:21:06.312Z,67.30
2019-04-10T07:23:36.596Z,67.70
2019-04-10T07:26:06.073Z,67.80
2019-04-10T07:28:37.804Z,67.00
2019-04-10T07:31:08.489Z,67.00
2019-04-10T07:33:37.398Z,66.20
2019-04-10T07:36:12.152Z,66.40
2019-04-10T07:38:39.296Z,66.50
2019-04-10T07:41:14.348Z,65.70
2019-04-10T07:43:40.594Z,65.70
2019-04-10T07:46:10.044Z,66.40
2019-04-10T07:48:39.336Z,65.50
2019-04-10T07:51:09.109Z,65.60
2019-04-10T07:53:39.546Z,65.30
2019-04-10T07:56:13.553Z,65.50
2019-04-10T07:58:40.092Z,64.90
2019-04-10T08:01:09.885Z,64.80
2019-04-10T08:03:39.598Z,64.60
2019-04-10T08:06:09.067Z,64.60
2019-04-10T08:08:38.410Z,64.20
2019-04-10T08:11:07.678Z,64.30
2019-04-10T08:13:37.207Z,64.40
2019-04-10T08:16:06.482Z,64.10
2019-04-10T08:18:37.191Z,63.10
2019-04-10T08:21:07.113Z,63.00
2019-04-10T08:23:36.590Z,63.40
2019-04-10T08:26:05.860Z,62.60
2019-04-10T08:28:35.126Z,62.80
2019-04-10T08:31:06.489Z,63.30
2019-04-10T08:33:36.693Z,61.90
2019-04-10T08:36:07.468Z,61.50
2019-04-10T08:38:37.892Z,62.50
2019-04-10T08:41:08.621Z,63.10
2019-04-10T08:43:38.175Z,62.00
2019-04-10T08:46:08.675Z,62.50
2019-04-10T08:48:39.086Z,59.60
2019-04-10T08:51:08.748Z,60.60
2019-04-10T08:53:38.422Z,59.30
2019-04-10T08:56:07.694Z,58.20
2019-04-10T08:58:37.073Z,58.10
2019-04-10T09:01:07.243Z,57.50
2019-04-10T09:03:37.144Z,55.70
2019-04-10T09:06:07.196Z,55.30
2019-04-10T09:08:37.225Z,56.30
2019-04-10T09:11:07.128Z,55.50
2019-04-10T09:13:36.856Z,54.60
2019-04-10T09:16:06.706Z,53.60
2019-04-10T09:18:37.160Z,53.60
2019-04-10T09:21:07.139Z,53.20
2019-04-10T09:23:44.759Z,54.30
2019-04-10T09:26:08.001Z,52.90
2019-04-10T09:28:38.338Z,54.00
2019-04-10T09:31:07.887Z,53.30
2019-04-10T09:33:37.491Z,53.30
2019-04-10T09:36:06.912Z,52.70
2019-04-10T09:38:36.946Z,51.30
2019-04-10T09:41:06.254Z,50.90
2019-04-10T09:43:36.504Z,51.30
2019-04-10T09:46:06.440Z,50.50
2019-04-10T09:48:35.917Z,50.30
2019-04-10T09:51:05.527Z,49.60
2019-04-10T09:53:35.158Z,49.60
2019-04-10T09:56:05.229Z,48.00
2019-04-10T09:58:34.698Z,47.40
2019-04-10T10:01:08.402Z,47.00
2019-04-10T10:03:37.722Z,48.50
2019-04-10T10:06:07.066Z,47.70
2019-04-10T10:08:36.626Z,46.90
2019-04-10T10:11:06.496Z,47.90
2019-04-10T10:13:35.762Z,48.20
2019-04-10T10:16:06.299Z,47.50
2019-04-10T10:18:35.758Z,48.20
2019-04-10T10:21:05.219Z,48.00
2019-04-10T10:23:34.495Z,48.80
2019-04-10T10:26:03.940Z,48.90
2019-04-10T10:28:33.459Z,48.10
2019-04-10T10:31:02.718Z,48.80
2019-04-10T10:33:32.298Z,49.00
2019-04-10T10:36:03.333Z,48.50
2019-04-10T10:38:32.878Z,49.80
2019-04-10T10:41:02.140Z,48.40
2019-04-10T10:43:32.193Z,49.00
2019-04-10T10:46:02.951Z,49.10
2019-04-10T10:48:32.650Z,49.00
2019-04-10T10:51:02.413Z,50.60
2019-04-10T10:53:32.410Z,49.20
2019-04-10T10:56:02.218Z,49.60
2019-04-10T10:58:32.178Z,49.40
2019-04-10T11:01:01.527Z,49.20
2019-04-10T11:03:32.012Z,47.70
2019-04-10T11:06:02.416Z,47.90
2019-04-10T11:08:31.812Z,47.30
2019-04-10T11:11:01.175Z,47.90
2019-04-10T11:13:30.886Z,47.20
2019-04-10T11:16:03.956Z,47.00
2019-04-10T11:18:32.647Z,46.30
2019-04-10T11:21:05.924Z,45.10
2019-04-10T11:23:33.799Z,46.00
2019-04-10T11:26:04.668Z,46.20
2019-04-10T11:28:34.319Z,45.30
2019-04-10T11:31:04.698Z,45.40
2019-04-10T11:33:34.826Z,44.10
2019-04-10T11:36:06.326Z,42.90
2019-04-10T11:38:35.803Z,41.30
2019-04-10T11:41:07.231Z,42.10
2019-04-10T11:43:37.722Z,43.30
2019-04-10T11:46:07.951Z,43.60
2019-04-10T11:48:39.218Z,44.50
2019-04-10T11:51:11.960Z,43.90
2019-04-10T11:53:44.463Z,43.20
2019-04-10T11:56:11.799Z,42.40
2019-04-10T11:58:49.454Z,42.20
2019-04-10T12:01:13.065Z,42.00
2019-04-10T12:03:48.254Z,42.00
2019-04-10T12:06:15.710Z,41.80
2019-04-10T12:09:08.357Z,40.50
2019-04-10T12:11:19.758Z,40.70
2019-04-10T12:13:47.023Z,40.90
2019-04-10T12:16:16.783Z,40.80
2019-04-10T12:18:46.786Z,40.10
2019-04-10T12:21:16.512Z,38.00
2019-04-10T12:23:47.389Z,38.80
2019-04-10T12:26:17.735Z,38.50
2019-04-10T12:28:47.286Z,37.70
2019-04-10T12:31:17.681Z,37.50
2019-04-10T12:33:47.079Z,39.60
2019-04-10T12:36:16.358Z,38.60
2019-04-10T12:38:45.731Z,38.60
2019-04-10T12:41:15.208Z,36.60
2019-04-10T12:43:45.754Z,36.70
2019-04-10T12:46:15.028Z,36.50
2019-04-10T12:48:45.201Z,36.00
2019-04-10T12:51:14.586Z,37.20
2019-04-10T12:53:43.984Z,36.80
2019-04-10T12:56:13.776Z,37.30
2019-04-10T12:58:43.147Z,36.50
2019-04-10T13:01:12.915Z,35.10
2019-04-10T13:03:43.130Z,35.40
2019-04-10T13:06:13.639Z,37.60
2019-04-10T13:08:57.179Z,36.30
2019-04-10T13:11:14.322Z,37.20
2019-04-10T13:13:44.378Z,36.50
2019-04-10T13:16:14.145Z,37.30
2019-04-10T13:18:44.703Z,37.30
2019-04-10T13:21:14.681Z,38.20
2019-04-10T13:23:44.755Z,38.00
2019-04-10T13:26:15.548Z,36.30
2019-04-10T13:28:44.878Z,35.80
2019-04-10T13:31:14.165Z,36.70
2019-04-10T13:33:44.786Z,36.50
2019-04-10T13:36:14.151Z,36.60
2019-04-10T13:38:44.362Z,36.00
2019-04-10T13:41:14.355Z,35.50
2019-04-10T13:43:44.229Z,34.80
2019-04-10T13:46:14.550Z,34.50
2019-04-10T13:48:45.212Z,34.50
2019-04-10T13:51:15.030Z,33.10
2019-04-10T13:53:44.366Z,32.50
2019-04-10T13:56:14.840Z,31.70
2019-04-10T13:58:44.617Z,32.00
2019-04-10T14:01:15.646Z,30.20
2019-04-10T14:03:45.161Z,30.90
2019-04-10T14:06:15.714Z,32.50
2019-04-10T14:09:04.440Z,31.30
2019-04-10T14:11:17.434Z,31.30
2019-04-10T14:13:46.899Z,31.50
2019-04-10T14:16:16.962Z,31.30
2019-04-10T14:18:46.406Z,31.30
2019-04-10T14:21:17.254Z,30.50
2019-04-10T14:23:47.241Z,30.40
2019-04-10T14:26:43.719Z,29.50
2019-04-10T14:29:07.255Z,28.50
2019-04-10T14:31:38.494Z,28.60
2019-04-10T14:34:07.903Z,28.30
2019-04-10T14:36:38.070Z,27.90
2019-04-10T14:39:17.820Z,27.70
2019-04-10T14:41:44.607Z,27.70
2019-04-10T14:44:14.616Z,27.50
2019-04-10T14:46:44.289Z,27.40
2019-04-10T14:49:13.922Z,27.80
2019-04-10T14:51:44.398Z,27.50
2019-04-10T14:54:15.501Z,27.10
2019-04-10T14:56:46.260Z,27.30
2019-04-10T14:59:15.818Z,26.90
2019-04-10T15:01:46.151Z,27.00
2019-04-10T15:04:15.671Z,26.30
2019-04-10T15:06:45.872Z,26.80
2019-04-10T15:09:24.008Z,27.70
2019-04-10T15:11:49.451Z,27.50
2019-04-10T15:14:19.400Z,28.80
2019-04-10T15:16:57.483Z,29.10
2019-04-10T15:19:20.533Z,29.60
2019-04-10T15:21:49.982Z,29.20
2019-04-10T15:24:19.561Z,29.50
2019-04-10T15:26:48.912Z,29.00
2019-04-10T15:29:18.515Z,29.30
2019-04-10T15:31:48.083Z,29.50
2019-04-10T15:34:18.310Z,29.80
2019-04-10T15:36:49.210Z,29.90
2019-04-10T15:39:30.211Z,29.20
2019-04-10T15:41:51.843Z,29.80
2019-04-10T15:44:21.799Z,30.80
2019-04-10T15:46:51.423Z,31.20
2019-04-10T15:49:20.707Z,32.10
2019-04-10T15:51:50.227Z,32.60
2019-04-10T15:54:19.494Z,32.80
2019-04-10T15:56:49.868Z,32.30
2019-04-10T15:59:19.892Z,33.10
2019-04-10T16:01:49.298Z,32.80
2019-04-10T16:04:19.143Z,30.20
2019-04-10T16:06:49.425Z,30.30
2019-04-10T16:09:19.049Z,32.00
2019-04-10T16:11:58.843Z,33.50
2019-04-10T16:14:31.400Z,34.00
2019-04-10T16:17:02.341Z,34.10
2019-04-10T16:19:36.680Z,34.80
2019-04-10T16:22:08.659Z,35.10
2019-04-10T16:24:38.841Z,34.80
2019-04-10T16:27:08.602Z,36.00
2019-04-10T16:29:38.215Z,36.70
2019-04-10T16:32:10.615Z,37.10
2019-04-10T16:34:40.887Z,36.30
2019-04-10T16:37:12.534Z,37.00
2019-04-10T16:39:42.464Z,37.30
2019-04-10T16:42:12.645Z,37.80
2019-04-10T16:44:43.764Z,37.70
2019-04-10T16:47:14.148Z,37.90
2019-04-10T16:49:44.604Z,38.60
2019-04-10T16:52:14.581Z,39.10
2019-04-10T16:54:45.167Z,39.00
2019-04-10T16:57:14.597Z,39.00
2019-04-10T16:59:43.946Z,39.50
2019-04-10T17:02:13.218Z,38.50
2019-04-10T17:04:43.694Z,39.40
2019-04-10T17:07:13.051Z,38.50
2019-04-10T17:09:43.884Z,39.10
2019-04-10T17:12:13.605Z,39.30
2019-04-10T17:14:43.904Z,39.50
2019-04-10T17:17:14.428Z,39.80
2019-04-10T17:19:52.164Z,39.70
2019-04-10T17:22:14.805Z,40.70
2019-04-10T17:24:45.240Z,40.50
2019-04-10T17:27:15.195Z,39.80
2019-04-10T17:29:45.201Z,39.70
2019-04-10T17:32:15.197Z,40.20
2019-04-10T17:34:45.146Z,39.90
2019-04-10T17:37:15.741Z,40.10
2019-04-10T17:39:45.202Z,40.30
2019-04-10T17:42:14.630Z,40.80
2019-04-10T17:44:43.910Z,41.20
2019-04-10T17:47:14.426Z,41.20
2019-04-10T17:49:44.035Z,41.60
2019-04-10T17:52:14.543Z,41.90
2019-04-10T17:54:44.860Z,42.20
2019-04-10T17:57:14.821Z,42.30
2019-04-10T17:59:44.766Z,42.70
2019-04-10T18:02:14.205Z,43.10
2019-04-10T18:04:44.238Z,43.30
2019-04-10T18:07:14.206Z,42.60
2019-04-10T18:09:43.875Z,43.00
2019-04-10T18:12:14.255Z,42.80
2019-04-10T18:14:44.153Z,43.00
2019-04-10T18:17:14.469Z,42.80
2019-04-10T18:19:46.085Z,43.00
2019-04-10T18:22:15.555Z,42.90
2019-04-10T18:24:45.433Z,43.40
2019-04-10T18:27:14.790Z,43.60
2019-04-10T18:29:45.286Z,43.80
2019-04-10T18:32:15.853Z,44.00
2019-04-10T18:34:46.471Z,45.10
2019-04-10T18:37:19.086Z,45.20
2019-04-10T18:39:46.935Z,45.30
2019-04-10T18:42:17.221Z,45.60
2019-04-10T18:44:46.938Z,46.00
2019-04-10T18:47:16.558Z,46.20
2019-04-10T18:49:45.870Z,46.70
2019-04-10T18:52:15.155Z,46.80
2019-04-10T18:54:44.714Z,47.10
2019-04-10T18:57:13.986Z,47.60
2019-04-10T18:59:49.064Z,47.50
2019-04-10T19:02:32.857Z,47.30
2019-04-10T19:05:16.047Z,47.60
2019-04-10T19:07:46.236Z,47.50
2019-04-10T19:10:15.638Z,47.70
2019-04-10T19:12:45.366Z,47.90
2019-04-10T19:15:14.835Z,47.90
2019-04-10T19:17:44.358Z,48.00
2019-04-10T19:20:13.830Z,48.10
2019-04-10T19:22:44.558Z,48.40
2019-04-10T19:25:14.560Z,48.50
2019-04-10T19:27:44.562Z,49.00
2019-04-10T19:30:32.191Z,48.50
2019-04-10T19:33:02.676Z,48.60
2019-04-10T19:35:31.960Z,48.70
2019-04-10T19:38:01.235Z,48.90
2019-04-10T19:40:30.510Z,49.00
2019-04-10T19:43:00.071Z,48.80
2019-04-10T19:45:32.099Z,49.00
2019-04-10T19:48:01.528Z,49.00
2019-04-10T19:50:30.887Z,49.20
2019-04-10T19:53:00.543Z,49.20
2019-04-10T19:55:30.046Z,49.10
2019-04-10T19:57:59.673Z,49.20
2019-04-10T20:00:30.614Z,49.60
2019-04-10T20:02:59.914Z,49.00
2019-04-10T20:05:29.566Z,49.00
2019-04-10T20:07:59.630Z,49.30
2019-04-10T20:10:29.706Z,49.40
2019-04-10T20:12:59.460Z,49.00
2019-04-10T20:15:28.920Z,49.20
2019-04-10T20:17:58.192Z,49.50
2019-04-10T20:20:28.979Z,49.70
2019-04-10T20:22:58.487Z,49.60
2019-04-10T20:25:27.764Z,50.50
2019-04-10T20:28:14.208Z,49.90
2019-04-10T20:30:44.814Z,50.00
2019-04-10T20:33:14.621Z,50.00
2019-04-10T20:35:44.673Z,50.00
2019-04-10T20:38:13.998Z,50.00
2019-04-10T20:40:44.264Z,50.00
2019-04-10T20:43:13.630Z,50.10
2019-04-10T20:45:42.990Z,49.90
2019-04-10T20:48:12.258Z,50.20
2019-04-10T20:50:41.797Z,50.30
2019-04-10T20:53:11.619Z,50.50
2019-04-10T20:55:41.900Z,50.70
2019-04-10T20:58:11.381Z,50.80
2019-04-10T21:00:42.903Z,51.00
2019-04-10T21:03:13.529Z,51.20
2019-04-10T21:05:42.915Z,51.30
2019-04-10T21:08:12.206Z,51.20
2019-04-10T21:10:41.475Z,51.40
2019-04-10T21:13:10.772Z,52.00
2019-04-10T21:15:40.117Z,51.70
2019-04-10T21:18:09.735Z,51.50
2019-04-10T21:20:39.004Z,51.80
2019-04-10T21:23:09.681Z,52.00
2019-04-10T21:25:39.475Z,52.20
2019-04-10T21:28:09.709Z,52.30
2019-04-10T21:30:56.672Z,52.50
2019-04-10T21:33:30.315Z,53.00
2019-04-10T21:35:59.767Z,52.80
2019-04-10T21:38:30.218Z,53.10
2019-04-10T21:40:59.589Z,53.00
2019-04-10T21:43:28.855Z,53.30
2019-04-10T21:45:58.123Z,54.00
2019-04-10T21:48:27.558Z,53.20
2019-04-10T21:50:58.098Z,53.50
2019-04-10T21:53:28.635Z,53.40
2019-04-10T21:55:58.444Z,53.80
2019-04-10T21:58:28.291Z,54.00
2019-04-10T22:01:01.606Z,54.30
2019-04-10T22:03:33.705Z,54.30
2019-04-10T22:06:21.779Z,54.40
2019-04-10T22:08:53.917Z,54.40
2019-04-10T22:11:23.558Z,54.70
2019-04-10T22:13:52.830Z,54.70
2019-04-10T22:16:24.025Z,54.80
2019-04-10T22:18:54.092Z,54.80
2019-04-10T22:21:23.442Z,55.00
2019-04-10T22:23:53.195Z,55.20
2019-04-10T22:26:22.467Z,55.40
2019-04-10T22:28:52.777Z,55.00
2019-04-10T22:31:22.088Z,55.20
2019-04-10T22:33:52.291Z,55.60
2019-04-10T22:36:22.754Z,55.60
2019-04-10T22:38:52.134Z,54.90
2019-04-10T22:41:28.570Z,55.70
2019-04-10T22:43:52.829Z,55.90
2019-04-10T22:46:22.115Z,56.00
2019-04-10T22:48:51.374Z,56.00
2019-04-10T22:51:21.411Z,56.10
2019-04-10T22:53:51.086Z,56.20
2019-04-10T22:56:20.959Z,56.20
2019-04-10T22:58:51.167Z,56.40
2019-04-10T23:01:20.698Z,56.50
2019-04-10T23:03:50.130Z,56.70
2019-04-10T23:06:19.398Z,56.80
2019-04-10T23:08:49.647Z,56.90
2019-04-10T23:11:30.363Z,57.00
2019-04-10T23:13:51.378Z,57.00
2019-04-10T23:16:20.642Z,57.00
2019-04-10T23:18:50.152Z,57.00
2019-04-10T23:21:20.661Z,57.00
2019-04-10T23:23:50.094Z,57.10
2019-04-10T23:26:19.342Z,57.00
2019-04-10T23:28:49.552Z,57.30
2019-04-10T23:31:19.454Z,57.70
2019-04-10T23:33:48.759Z,57.60
2019-04-10T23:36:18.158Z,57.50
2019-04-10T23:38:47.971Z,58.00
2019-04-10T23:41:17.765Z,58.20
2019-04-10T23:43:48.185Z,58.60
2019-04-10T23:46:18.065Z,59.30
2019-04-10T23:48:47.455Z,59.80
2019-04-10T23:51:16.868Z,59.80
2019-04-10T23:53:46.917Z,60.00
2019-04-10T23:56:17.807Z,60.30
2019-04-10T23:58:48.138Z,60.90
